Pellston Regional Airport of Emmet County Airport Pellston US
ICAO: KPLN
IATA: PLN
Category: Medium
Scheduled Services: Yes

Elevation: 721 ft
TransAlt. 18000 ft.

Airport Communications:
ASOS:119.025
MINNEAPOLIS CNTR:134.6
LANSING RDO:122.2
CTAF/UNICOM:123

KPLN Zoom In..

If you have problems with the map follow the link
https://www.worldairports.se/pages/airport.php?
ICAO=KPLN

Runways:

(A) RW 05 length 5401 ft width 150 ft
---- / hdg 51

(B) RW 14 length 6513 ft width 150 ft
---- / hdg 141

(C) RW 23 length 5401 ft width 150 ft
---- / hdg 231

(D) RW 32 length 6513 ft width 150 ft
ILS 111.30 / hdg 321

Location; KPLN
Day. 08 / Time. 13.54 Zulu
* Altimeter: 29.77
* Temperature: 04° c. 39.2°f.
* Wind from: 200° Speed 13 kn with Gusts up to 26 kn.
Dewpoint: -04° c.
Visibility: 10 Statute Miles.
Clouds: Overcast 8500 ft.

KPLN 081354Z AUTO 20013G26KT 10SM OVC085 04/M04 A2977 RMK AO2 PK WND 21026/1346 SLP090 T00391039


Wind From 200°
Speed 13 kn.

 
 
jpsmedia worldairports.se 2019   terms of use